KJHW

Chautauqua County-Jamestown Airport

Airport
ICAO code
KJHW
IATA Code
JHW
Summary
ICAO Region
NAM
ICAO Territory
Location

Jamestown, New York

Serving
Jamestown
Elevation
1723 ft
Coordinates
42° 9' 12" N , 79° 15' 28" W
KCC
Airport GND
Aircraft Ground De/Anti Icing
Metar
KJHW 151005Z AUTO 23008KT 9SM OVC005 19/19 A2997 RMK AO2

Description

Chautauqua County-Jamestown Airport is a public use airport located 3 nm north of the central business district of Jamestown, a city in Chautauqua County, New York, USA.

Airport map

Aerial View

SKYbrary Partners:

Safety knowledge contributed by: